createdAt,value
2023-04-17T00:04:28.791Z,17.27
2023-04-17T00:10:23.443Z,16.30
2023-04-17T00:16:16.979Z,17.47
2023-04-17T00:22:10.057Z,17.20
2023-04-17T00:28:04.579Z,17.37
2023-04-17T00:33:58.834Z,18.47
2023-04-17T00:39:51.908Z,17.90
2023-04-17T00:45:48.361Z,16.67
2023-04-17T00:51:41.594Z,17.30
2023-04-17T00:57:35.549Z,18.80
2023-04-17T01:03:32.607Z,19.03
2023-04-17T01:09:27.488Z,18.80
2023-04-17T01:15:21.256Z,19.57
2023-04-17T01:21:16.295Z,18.53
2023-04-17T01:27:15.229Z,18.20
2023-04-17T01:33:10.640Z,19.17
2023-04-17T01:39:04.043Z,18.20
2023-04-17T01:44:58.862Z,18.90
2023-04-17T01:50:51.961Z,19.63
2023-04-17T01:56:45.450Z,18.87
2023-04-17T02:02:40.594Z,18.80
2023-04-17T02:08:34.657Z,21.23
2023-04-17T02:14:31.516Z,19.37
2023-04-17T02:20:26.413Z,20.90
2023-04-17T02:26:19.933Z,19.67
2023-04-17T02:32:13.395Z,20.27
2023-04-17T02:38:07.890Z,20.50
2023-04-17T02:44:02.322Z,19.40
2023-04-17T02:49:56.627Z,21.17
2023-04-17T02:55:51.347Z,21.67
2023-04-17T03:01:47.207Z,21.67
2023-04-17T03:07:44.042Z,20.27
2023-04-17T03:13:39.268Z,21.10
2023-04-17T03:19:32.790Z,19.60
2023-04-17T03:25:26.568Z,20.67
2023-04-17T03:31:24.540Z,21.47
2023-04-17T03:37:18.305Z,21.93
2023-04-17T03:43:12.975Z,20.80
2023-04-17T03:49:07.911Z,20.17
2023-04-17T03:55:02.530Z,21.90
2023-04-17T04:00:59.296Z,22.60
2023-04-17T04:06:58.345Z,20.40
2023-04-17T04:12:52.939Z,21.43
2023-04-17T04:18:46.136Z,21.67
2023-04-17T04:24:43.154Z,23.90
2023-04-17T04:30:39.646Z,23.03
2023-04-17T04:36:50.704Z,23.23
2023-04-17T04:42:58.518Z,23.87
2023-04-17T04:48:59.428Z,24.33
2023-04-17T04:54:53.905Z,25.73
2023-04-17T05:00:48.629Z,24.83
2023-04-17T05:06:49.974Z,24.80
2023-04-17T05:12:45.088Z,25.03
2023-04-17T05:18:41.220Z,24.87
2023-04-17T05:24:38.056Z,23.53
2023-04-17T05:30:31.724Z,24.87
2023-04-17T05:36:38.262Z,25.73
2023-04-17T05:42:31.831Z,25.93
2023-04-17T05:48:25.256Z,23.93
2023-04-17T05:54:20.609Z,24.57
2023-04-17T06:00:15.954Z,26.27
2023-04-17T06:06:12.389Z,26.23
2023-04-17T06:12:07.402Z,25.53
2023-04-17T06:18:01.629Z,26.33
2023-04-17T06:23:54.745Z,24.67
2023-04-17T06:29:49.130Z,26.20
2023-04-17T06:35:42.321Z,26.40
2023-04-17T06:41:43.613Z,26.03
2023-04-17T06:47:39.528Z,23.40
2023-04-17T06:53:32.610Z,26.20
2023-04-17T06:59:25.727Z,20.60
2023-04-17T07:05:20.257Z,21.27
2023-04-17T07:11:15.056Z,21.33
2023-04-17T07:17:08.996Z,18.47
2023-04-17T07:23:03.891Z,18.90
2023-04-17T07:28:57.398Z,18.60
2023-04-17T07:34:50.760Z,18.73
2023-04-17T07:40:45.766Z,20.40
2023-04-17T07:46:39.542Z,19.73
2023-04-17T07:52:33.103Z,20.03
2023-04-17T07:58:27.565Z,17.07
2023-04-17T08:04:21.349Z,16.50
2023-04-17T08:10:14.722Z,19.17
2023-04-17T08:16:10.542Z,19.30
2023-04-17T08:22:06.209Z,18.10
2023-04-17T08:27:59.392Z,16.47
2023-04-17T08:34:06.167Z,12.63
2023-04-17T08:40:09.818Z,14.07
2023-04-17T08:46:03.580Z,11.60
2023-04-17T08:51:58.140Z,13.57
2023-04-17T08:57:59.133Z,13.90
2023-04-17T09:03:52.856Z,13.70
2023-04-17T09:09:55.639Z,13.00
2023-04-17T09:16:04.432Z,14.40
2023-04-17T09:21:57.590Z,13.50
2023-04-17T09:27:52.428Z,15.23
2023-04-17T09:33:58.125Z,14.70
2023-04-17T09:40:01.823Z,15.10
2023-04-17T09:45:56.893Z,15.10
2023-04-17T09:51:50.731Z,13.50
2023-04-17T09:57:44.715Z,14.40
2023-04-17T10:03:39.713Z,11.77
2023-04-17T10:09:33.302Z,12.17
2023-04-17T10:15:27.104Z,11.57
2023-04-17T10:21:24.552Z,11.00
2023-04-17T10:27:45.845Z,11.23
2023-04-17T10:33:50.418Z,10.47
2023-04-17T10:40:01.511Z,11.10
2023-04-17T10:46:02.257Z,9.67
2023-04-17T10:51:55.884Z,11.10
2023-04-17T10:58:00.202Z,8.50
2023-04-17T11:03:53.474Z,8.10
2023-04-17T11:09:53.355Z,7.43
2023-04-17T11:15:48.376Z,6.70
2023-04-17T11:21:43.468Z,5.83
2023-04-17T11:27:37.456Z,4.67
2023-04-17T11:33:37.967Z,6.60
2023-04-17T11:39:33.819Z,6.47
2023-04-17T11:45:26.958Z,5.70
2023-04-17T11:51:21.386Z,6.10
2023-04-17T11:57:15.728Z,6.67
2023-04-17T12:03:34.860Z,6.80
2023-04-17T12:09:32.152Z,6.43
2023-04-17T12:15:26.388Z,6.70
2023-04-17T12:21:20.601Z,7.37
2023-04-17T12:27:15.018Z,6.30
2023-04-17T12:33:08.659Z,6.00
2023-04-17T12:39:02.676Z,6.20
2023-04-17T12:44:57.160Z,5.97
2023-04-17T12:50:50.423Z,6.07
2023-04-17T12:56:43.926Z,6.87
2023-04-17T13:02:38.698Z,6.43
2023-04-17T13:08:31.904Z,6.77
2023-04-17T13:14:25.103Z,6.83
2023-04-17T13:20:19.552Z,6.03
2023-04-17T13:26:12.655Z,5.77
2023-04-17T13:32:06.887Z,5.53
2023-04-17T13:38:03.431Z,5.07
2023-04-17T13:43:56.538Z,5.27
2023-04-17T13:49:50.222Z,4.60
2023-04-17T13:55:45.139Z,4.03
2023-04-17T14:01:38.709Z,4.10
2023-04-17T14:07:32.271Z,3.90
2023-04-17T14:13:26.794Z,3.30
2023-04-17T14:19:20.287Z,3.40
2023-04-17T14:25:13.501Z,3.93
2023-04-17T14:31:08.830Z,4.90
2023-04-17T14:37:02.044Z,6.53
2023-04-17T14:42:55.545Z,6.10
2023-04-17T14:48:55.423Z,7.30
2023-04-17T14:54:49.057Z,7.40
2023-04-17T15:00:42.611Z,6.97
2023-04-17T15:06:39.006Z,7.60
2023-04-17T15:12:32.103Z,8.40
2023-04-17T15:18:25.394Z,7.80
2023-04-17T15:24:19.809Z,8.10
2023-04-17T15:30:14.163Z,7.63
2023-04-17T15:36:07.705Z,8.90
2023-04-17T15:42:02.627Z,8.40
2023-04-17T15:47:56.293Z,7.90
2023-04-17T15:53:49.862Z,8.67
2023-04-17T15:59:44.262Z,8.03
2023-04-17T16:05:37.393Z,8.50
2023-04-17T16:11:30.458Z,8.73
2023-04-17T16:17:25.503Z,8.47
2023-04-17T16:23:18.548Z,8.77
2023-04-17T16:29:11.835Z,8.07
2023-04-17T16:35:07.902Z,7.30
2023-04-17T16:41:01.856Z,7.80
2023-04-17T16:52:54.026Z,6.97
2023-04-17T16:58:47.103Z,6.57
2023-04-17T17:04:40.561Z,7.47
2023-04-17T17:10:35.096Z,7.60
2023-04-17T17:22:42.303Z,6.87
2023-04-17T17:28:37.660Z,6.50
2023-04-17T17:34:30.797Z,7.03
2023-04-17T17:40:24.376Z,7.97
2023-04-17T17:46:19.424Z,7.50
2023-04-17T17:52:12.991Z,7.63
2023-04-17T17:58:07.706Z,8.13
2023-04-17T18:04:02.855Z,7.00
2023-04-17T18:09:56.533Z,7.07
2023-04-17T18:15:50.062Z,6.90
2023-04-17T18:21:46.025Z,7.13
2023-04-17T18:27:41.934Z,5.50
2023-04-17T18:33:35.548Z,5.50
2023-04-17T18:39:29.986Z,6.40
2023-04-17T18:45:23.778Z,6.53
2023-04-17T18:51:17.478Z,7.27
2023-04-17T18:57:12.060Z,7.17
2023-04-17T19:03:06.411Z,8.53
2023-04-17T19:09:00.003Z,7.57
2023-04-17T19:14:57.070Z,8.50
2023-04-17T19:20:50.590Z,8.30
2023-04-17T19:26:43.849Z,8.87
2023-04-17T19:32:38.373Z,8.90
2023-04-17T19:38:31.739Z,8.47
2023-04-17T19:44:27.394Z,8.70
2023-04-17T19:50:24.468Z,8.57
2023-04-17T19:56:17.729Z,9.30
2023-04-17T20:02:12.391Z,8.57
2023-04-17T20:08:09.616Z,9.90
2023-04-17T20:14:03.134Z,9.50
2023-04-17T20:19:56.194Z,10.80
2023-04-17T20:25:51.188Z,11.33
2023-04-17T20:31:44.746Z,11.30
2023-04-17T20:37:40.891Z,10.67
2023-04-17T20:43:35.433Z,11.37
2023-04-17T20:49:28.997Z,10.97
2023-04-17T20:55:22.519Z,11.60
2023-04-17T21:01:17.671Z,11.67
2023-04-17T21:07:10.852Z,10.70
2023-04-17T21:13:03.928Z,10.67
2023-04-17T21:18:58.815Z,11.10
2023-04-17T21:24:52.457Z,10.33
2023-04-17T21:30:46.132Z,11.50
2023-04-17T21:36:40.984Z,10.40
2023-04-17T21:42:34.520Z,10.67
2023-04-17T21:48:27.668Z,10.20
2023-04-17T21:54:22.148Z,11.77
2023-04-17T22:00:15.875Z,12.10
2023-04-17T22:06:09.712Z,11.40
2023-04-17T22:12:12.711Z,11.80
2023-04-17T22:18:06.600Z,10.03
2023-04-17T22:23:59.697Z,11.60
2023-04-17T22:29:54.120Z,10.80
2023-04-17T22:35:47.584Z,11.70
2023-04-17T22:41:40.641Z,11.83
2023-04-17T22:47:35.520Z,11.57
2023-04-17T22:53:29.987Z,10.83
2023-04-17T22:59:23.143Z,11.20
2023-04-17T23:05:18.268Z,11.53
2023-04-17T23:11:12.504Z,10.87
2023-04-17T23:17:06.925Z,10.67
2023-04-17T23:23:01.852Z,10.70
2023-04-17T23:28:54.962Z,10.80
2023-04-17T23:34:48.471Z,11.53
2023-04-17T23:40:43.197Z,12.13
2023-04-17T23:46:36.856Z,11.03
2023-04-17T23:52:30.493Z,10.93
2023-04-17T23:58:25.330Z,11.57
